createdAt,value
2022-11-27T00:00:02.439Z,1018.66
2022-11-27T00:01:02.578Z,1018.71
2022-11-27T00:02:02.849Z,1018.63
2022-11-27T00:03:03.282Z,1018.61
2022-11-27T00:04:03.088Z,1018.64
2022-11-27T00:05:03.093Z,1018.59
2022-11-27T00:06:03.023Z,1018.60
2022-11-27T00:07:03.058Z,1018.62
2022-11-27T00:08:02.759Z,1018.58
2022-11-27T00:09:02.617Z,1018.61
2022-11-27T00:10:03.005Z,1018.66
2022-11-27T00:11:03.121Z,1018.66
2022-11-27T00:12:03.083Z,1018.66
2022-11-27T00:13:03.372Z,1018.64
2022-11-27T00:14:03.280Z,1018.65
2022-11-27T00:15:03.010Z,1018.59
2022-11-27T00:16:03.705Z,1018.61
2022-11-27T00:17:02.861Z,1018.55
2022-11-27T00:18:02.582Z,1018.56
2022-11-27T00:19:02.468Z,1018.53
2022-11-27T00:20:02.361Z,1018.49
2022-11-27T00:21:02.664Z,1018.49
2022-11-27T00:22:02.901Z,1018.50
2022-11-27T00:23:02.922Z,1018.53
2022-11-27T00:24:02.648Z,1018.55
2022-11-27T00:25:03.201Z,1018.57
2022-11-27T00:26:03.110Z,1018.56
2022-11-27T00:27:03.531Z,1018.54
2022-11-27T00:28:03.298Z,1018.56
2022-11-27T00:29:03.456Z,1018.50
2022-11-27T00:30:02.998Z,1018.51
2022-11-27T00:31:03.500Z,1018.49
2022-11-27T00:32:03.151Z,1018.47
2022-11-27T00:33:03.622Z,1018.49
2022-11-27T00:34:03.663Z,1018.48
2022-11-27T00:35:03.691Z,1018.51
2022-11-27T00:36:03.503Z,1018.53
2022-11-27T00:37:03.230Z,1018.52
2022-11-27T00:38:03.371Z,1018.51
2022-11-27T00:39:03.656Z,1018.54
2022-11-27T00:40:03.489Z,1018.51
2022-11-27T00:41:03.210Z,1018.52
2022-11-27T00:42:02.705Z,1018.51
2022-11-27T00:43:03.070Z,1018.51
2022-11-27T00:44:03.096Z,1018.52
2022-11-27T00:45:02.960Z,1018.53
2022-11-27T00:46:02.723Z,1018.55
2022-11-27T00:47:02.871Z,1018.54
2022-11-27T00:48:03.149Z,1018.55
2022-11-27T00:49:03.179Z,1018.54
2022-11-27T00:50:03.221Z,1018.57
2022-11-27T00:51:02.723Z,1018.53
2022-11-27T00:52:03.766Z,1018.52
2022-11-27T00:53:03.524Z,1018.49
2022-11-27T00:54:03.236Z,1018.50
2022-11-27T00:55:03.187Z,1018.52
2022-11-27T00:56:03.674Z,1018.46
2022-11-27T00:57:02.736Z,1018.48
2022-11-27T00:58:03.136Z,1018.49
2022-11-27T00:59:02.466Z,1018.50
2022-11-27T01:00:02.853Z,1018.51
2022-11-27T01:01:02.770Z,1018.50
2022-11-27T01:02:01.823Z,1018.48
2022-11-27T01:03:02.303Z,1018.51
2022-11-27T01:04:01.784Z,1018.49
2022-11-27T01:05:02.206Z,1018.53
2022-11-27T01:06:02.196Z,1018.53
2022-11-27T01:07:02.402Z,1018.58
2022-11-27T01:08:02.468Z,1018.55
2022-11-27T01:09:02.363Z,1018.55
2022-11-27T01:10:02.463Z,1018.51
2022-11-27T01:11:02.030Z,1018.53
2022-11-27T01:12:02.578Z,1018.52
2022-11-27T01:13:02.349Z,1018.44
2022-11-27T01:14:02.741Z,1018.49
2022-11-27T01:15:02.333Z,1018.47
2022-11-27T01:16:02.707Z,1018.47
2022-11-27T01:17:01.904Z,1018.41
2022-11-27T01:18:02.449Z,1018.46
2022-11-27T01:19:02.130Z,1018.47
2022-11-27T01:20:02.452Z,1018.48
2022-11-27T01:21:02.362Z,1018.51
2022-11-27T01:22:02.460Z,1018.49
2022-11-27T01:23:02.683Z,1018.49
2022-11-27T01:24:02.416Z,1018.49
2022-11-27T01:25:02.551Z,1018.49
2022-11-27T01:26:02.606Z,1018.47
2022-11-27T01:27:01.845Z,1018.48
2022-11-27T01:28:02.300Z,1018.44
2022-11-27T01:29:02.008Z,1018.44
2022-11-27T01:30:02.197Z,1018.41
2022-11-27T01:31:02.403Z,1018.39
2022-11-27T01:32:02.912Z,1018.39
2022-11-27T01:33:02.619Z,1018.40
2022-11-27T01:34:02.771Z,1018.38
2022-11-27T01:35:02.605Z,1018.37
2022-11-27T01:36:02.886Z,1018.35
2022-11-27T01:37:02.245Z,1018.32
2022-11-27T01:38:02.551Z,1018.31
2022-11-27T01:39:02.716Z,1018.24
2022-11-27T01:40:02.445Z,1018.27
2022-11-27T01:41:02.365Z,1018.24
2022-11-27T01:42:01.860Z,1018.24
2022-11-27T01:43:01.906Z,1018.25
2022-11-27T01:44:01.771Z,1018.19
2022-11-27T01:45:02.066Z,1018.20
2022-11-27T01:46:02.031Z,1018.21
2022-11-27T01:47:02.190Z,1018.20
2022-11-27T01:48:01.812Z,1018.13
2022-11-27T01:49:01.968Z,1018.13
2022-11-27T01:50:01.766Z,1018.12
2022-11-27T01:51:02.095Z,1018.14
2022-11-27T01:52:02.287Z,1018.14
2022-11-27T01:53:01.830Z,1018.14
2022-11-27T01:54:01.988Z,1018.20
2022-11-27T01:55:02.027Z,1018.19
2022-11-27T01:56:02.030Z,1018.14
2022-11-27T01:57:02.700Z,1018.21
2022-11-27T01:58:02.418Z,1018.19
2022-11-27T01:59:02.284Z,1018.07
2022-11-27T02:00:02.728Z,1018.16
2022-11-27T02:01:02.729Z,1018.12
2022-11-27T02:02:01.977Z,1018.11
2022-11-27T02:03:02.404Z,1018.07
2022-11-27T02:04:02.189Z,1018.09
2022-11-27T02:05:02.164Z,1018.09
2022-11-27T02:06:02.349Z,1018.03
2022-11-27T02:07:02.487Z,1018.04
2022-11-27T02:08:02.608Z,1018.03
2022-11-27T02:09:03.035Z,1018.04
2022-11-27T02:10:02.733Z,1018.03
2022-11-27T02:11:03.029Z,1018.10
2022-11-27T02:12:02.377Z,1018.01
2022-11-27T02:13:01.967Z,1018.06
2022-11-27T02:14:02.267Z,1018.09
2022-11-27T02:15:02.183Z,1018.07
2022-11-27T02:16:01.903Z,1018.08
2022-11-27T02:17:02.488Z,1018.04
2022-11-27T02:18:02.055Z,1018.01
2022-11-27T02:19:02.341Z,1017.99
2022-11-27T02:20:02.587Z,1017.95
2022-11-27T02:21:02.127Z,1017.99
2022-11-27T02:22:02.689Z,1017.97
2022-11-27T02:23:02.313Z,1018.01
2022-11-27T02:24:02.520Z,1018.01
2022-11-27T02:25:02.548Z,1018.01
2022-11-27T02:26:02.663Z,1017.97
2022-11-27T02:27:02.179Z,1017.97
2022-11-27T02:28:02.164Z,1017.95
2022-11-27T02:29:02.201Z,1017.94
2022-11-27T02:30:01.906Z,1017.97
2022-11-27T02:31:02.185Z,1017.96
2022-11-27T02:32:02.800Z,1017.96
2022-11-27T02:33:02.493Z,1017.95
2022-11-27T02:34:02.318Z,1017.90
2022-11-27T02:35:02.798Z,1017.90
2022-11-27T02:36:02.560Z,1017.86
2022-11-27T02:37:01.921Z,1017.79
2022-11-27T02:38:01.829Z,1017.79
2022-11-27T02:39:01.916Z,1017.76
2022-11-27T02:40:02.088Z,1017.77
2022-11-27T02:41:01.782Z,1017.80
2022-11-27T02:42:02.309Z,1017.69
2022-11-27T02:43:02.091Z,1017.68
2022-11-27T02:44:01.918Z,1017.70
2022-11-27T02:45:02.081Z,1017.75
2022-11-27T02:46:02.239Z,1017.76
2022-11-27T02:47:02.087Z,1017.81
2022-11-27T02:48:02.316Z,1017.79
2022-11-27T02:49:02.056Z,1017.77
2022-11-27T02:50:02.147Z,1017.68
2022-11-27T02:51:02.183Z,1017.72
2022-11-27T02:52:02.716Z,1017.72
2022-11-27T02:53:02.883Z,1017.71
2022-11-27T02:54:02.310Z,1017.68
2022-11-27T02:55:02.300Z,1017.74
2022-11-27T02:56:02.804Z,1017.77
2022-11-27T02:57:02.146Z,1017.79
2022-11-27T02:58:07.921Z,1017.78
2022-11-27T02:59:02.255Z,1017.72
2022-11-27T03:00:02.430Z,1017.72
2022-11-27T03:01:02.181Z,1017.66
2022-11-27T03:02:02.530Z,1017.61
2022-11-27T03:03:02.971Z,1017.63
2022-11-27T03:04:02.744Z,1017.61
2022-11-27T03:05:02.902Z,1017.58
2022-11-27T03:06:02.721Z,1017.57
2022-11-27T03:07:02.984Z,1017.55
2022-11-27T03:08:02.670Z,1017.49
2022-11-27T03:09:02.839Z,1017.41
2022-11-27T03:10:02.647Z,1017.41
2022-11-27T03:11:03.090Z,1017.40
2022-11-27T03:12:02.804Z,1017.42
2022-11-27T03:13:02.810Z,1017.37
2022-11-27T03:14:02.409Z,1017.28
2022-11-27T03:15:02.767Z,1017.29
2022-11-27T03:16:02.549Z,1017.31
2022-11-27T03:17:02.288Z,1017.29
2022-11-27T03:18:02.336Z,1017.25
2022-11-27T03:19:02.510Z,1017.24
2022-11-27T03:20:02.215Z,1017.18
2022-11-27T03:21:02.582Z,1017.13
2022-11-27T03:22:02.515Z,1017.13
2022-11-27T03:23:02.840Z,1017.11
2022-11-27T03:24:02.490Z,1017.15
2022-11-27T03:25:02.439Z,1017.13
2022-11-27T03:26:02.355Z,1017.16
2022-11-27T03:27:03.193Z,1017.13
2022-11-27T03:28:02.978Z,1017.14
2022-11-27T03:29:03.380Z,1017.11
2022-11-27T03:30:03.269Z,1017.11
2022-11-27T03:31:03.167Z,1017.11
2022-11-27T03:32:02.735Z,1017.09
2022-11-27T03:33:02.635Z,1017.08
2022-11-27T03:34:02.492Z,1017.12
2022-11-27T03:35:02.500Z,1017.10
2022-11-27T03:36:02.369Z,1017.09
2022-11-27T03:37:03.411Z,1017.07
2022-11-27T03:38:03.213Z,1017.07
2022-11-27T03:39:03.064Z,1017.07
2022-11-27T03:40:03.115Z,1017.03
2022-11-27T03:41:03.060Z,1017.00
2022-11-27T03:42:02.375Z,1016.98
2022-11-27T03:43:02.490Z,1016.98
2022-11-27T03:44:02.979Z,1016.99
2022-11-27T03:45:02.654Z,1016.95
2022-11-27T03:46:02.849Z,1017.00
2022-11-27T03:47:03.215Z,1017.00
2022-11-27T03:48:03.500Z,1017.04
2022-11-27T03:49:03.053Z,1017.06
2022-11-27T03:50:03.402Z,1017.04
2022-11-27T03:51:03.240Z,1017.04
2022-11-27T03:52:02.776Z,1017.07
2022-11-27T03:53:02.840Z,1017.04
2022-11-27T03:54:03.159Z,1017.07
2022-11-27T03:55:03.015Z,1017.03
2022-11-27T03:56:08.449Z,1017.05
2022-11-27T03:57:02.005Z,1017.04
2022-11-27T03:58:02.159Z,1017.07
2022-11-27T03:59:02.023Z,1017.11
2022-11-27T04:00:02.043Z,1017.13
2022-11-27T04:01:02.435Z,1017.15
2022-11-27T04:02:02.543Z,1017.17
2022-11-27T04:03:02.506Z,1017.19
2022-11-27T04:04:02.691Z,1017.17
2022-11-27T04:05:02.444Z,1017.17
2022-11-27T04:06:02.109Z,1017.17
2022-11-27T04:07:02.829Z,1017.19
2022-11-27T04:08:02.534Z,1017.21
2022-11-27T04:09:02.900Z,1017.19
2022-11-27T04:10:02.795Z,1017.23
2022-11-27T04:11:03.167Z,1017.24
2022-11-27T04:12:02.894Z,1017.24
2022-11-27T04:13:02.741Z,1017.22
2022-11-27T04:14:02.946Z,1017.20
2022-11-27T04:15:03.187Z,1017.14
2022-11-27T04:16:02.877Z,1017.13
2022-11-27T04:17:02.399Z,1017.10
2022-11-27T04:18:02.474Z,1017.07
2022-11-27T04:19:02.421Z,1017.03
2022-11-27T04:20:02.304Z,1017.05
2022-11-27T04:21:02.210Z,1017.04
2022-11-27T04:22:03.273Z,1017.03
2022-11-27T04:23:02.788Z,1017.01
2022-11-27T04:24:03.100Z,1017.00
2022-11-27T04:25:02.803Z,1017.03
2022-11-27T04:26:03.092Z,1017.01
2022-11-27T04:27:02.274Z,1016.98
2022-11-27T04:28:02.389Z,1016.88
2022-11-27T04:29:02.802Z,1016.94
2022-11-27T04:30:02.727Z,1016.85
2022-11-27T04:31:02.203Z,1016.80
2022-11-27T04:32:02.719Z,1016.80
2022-11-27T04:33:02.183Z,1016.73
2022-11-27T04:34:02.645Z,1016.72
2022-11-27T04:35:02.704Z,1016.73
2022-11-27T04:36:02.163Z,1016.72
2022-11-27T04:37:02.661Z,1016.67
2022-11-27T04:38:02.588Z,1016.70
2022-11-27T04:39:02.791Z,1016.66
2022-11-27T04:40:02.233Z,1016.64
2022-11-27T04:41:02.257Z,1016.62
2022-11-27T04:42:02.649Z,1016.58
2022-11-27T04:43:02.535Z,1016.60
2022-11-27T04:44:02.828Z,1016.54
2022-11-27T04:45:02.605Z,1016.55
2022-11-27T04:46:02.273Z,1016.54
2022-11-27T04:47:02.249Z,1016.52
2022-11-27T04:48:02.154Z,1016.45
2022-11-27T04:49:01.957Z,1016.46
2022-11-27T04:50:02.386Z,1016.42
2022-11-27T04:51:08.303Z,1016.43
2022-11-27T04:52:02.794Z,1016.42
2022-11-27T04:53:02.325Z,1016.40
2022-11-27T04:54:02.797Z,1016.39
2022-11-27T04:55:02.726Z,1016.43
2022-11-27T04:56:02.386Z,1016.42
2022-11-27T04:57:02.875Z,1016.39
2022-11-27T04:58:02.996Z,1016.42
2022-11-27T04:59:02.816Z,1016.40
2022-11-27T05:00:02.908Z,1016.38
2022-11-27T05:01:02.704Z,1016.38
2022-11-27T05:02:01.975Z,1016.32
2022-11-27T05:03:02.036Z,1016.30
2022-11-27T05:04:02.182Z,1016.29
2022-11-27T05:05:01.793Z,1016.23
2022-11-27T05:06:01.965Z,1016.22
2022-11-27T05:07:02.220Z,1016.25
2022-11-27T05:08:02.265Z,1016.15
2022-11-27T05:09:02.169Z,1016.17
2022-11-27T05:10:01.880Z,1016.20
2022-11-27T05:11:02.293Z,1016.15
2022-11-27T05:12:02.758Z,1016.18
2022-11-27T05:13:02.898Z,1016.19
2022-11-27T05:14:02.795Z,1016.16
2022-11-27T05:15:04.619Z,1016.14
2022-11-27T05:16:02.429Z,1016.14
2022-11-27T05:17:02.437Z,1016.09
2022-11-27T05:18:02.533Z,1016.07
2022-11-27T05:19:02.916Z,1016.09
2022-11-27T05:20:02.692Z,1016.11
2022-11-27T05:21:02.498Z,1016.04
2022-11-27T05:22:02.248Z,1016.05
2022-11-27T05:23:01.838Z,1016.01
2022-11-27T05:24:02.599Z,1015.99
2022-11-27T05:25:02.001Z,1016.03
2022-11-27T05:26:02.475Z,1016.05
2022-11-27T05:27:02.409Z,1016.07
2022-11-27T05:28:02.707Z,1016.04
2022-11-27T05:29:02.767Z,1016.06
2022-11-27T05:30:02.833Z,1016.12
2022-11-27T05:31:02.514Z,1016.15
2022-11-27T05:32:02.284Z,1016.13
2022-11-27T05:33:02.138Z,1016.09
2022-11-27T05:34:01.884Z,1016.10
2022-11-27T05:35:02.072Z,1016.07
2022-11-27T05:36:02.192Z,1016.05
2022-11-27T05:37:02.375Z,1016.00
2022-11-27T05:38:01.745Z,1015.96
2022-11-27T05:39:02.155Z,1015.89
2022-11-27T05:40:02.010Z,1015.84
2022-11-27T05:41:02.033Z,1015.80
2022-11-27T05:42:02.208Z,1015.81
2022-11-27T05:43:02.094Z,1015.79
2022-11-27T05:44:02.721Z,1015.77
2022-11-27T05:45:02.246Z,1015.76
2022-11-27T05:46:02.179Z,1015.73
2022-11-27T05:47:02.680Z,1015.73
2022-11-27T05:48:02.259Z,1015.71
2022-11-27T05:49:02.747Z,1015.73
2022-11-27T05:50:02.238Z,1015.71
2022-11-27T05:51:02.400Z,1015.71
2022-11-27T05:52:02.802Z,1015.74
2022-11-27T05:53:03.054Z,1015.74
2022-11-27T05:54:03.000Z,1015.72
2022-11-27T05:55:02.247Z,1015.78
2022-11-27T05:56:02.731Z,1015.79
2022-11-27T05:57:01.771Z,1015.79
2022-11-27T05:58:02.395Z,1015.76
2022-11-27T05:59:02.349Z,1015.78
2022-11-27T06:00:02.251Z,1015.77
2022-11-27T06:01:02.392Z,1015.75
2022-11-27T06:02:02.076Z,1015.77
2022-11-27T06:03:02.755Z,1015.69
2022-11-27T06:04:02.450Z,1015.70
2022-11-27T06:05:02.177Z,1015.69
2022-11-27T06:06:01.960Z,1015.69
2022-11-27T06:07:02.783Z,1015.74
2022-11-27T06:08:02.672Z,1015.77
2022-11-27T06:09:05.702Z,1015.76
2022-11-27T06:10:03.009Z,1015.72
2022-11-27T06:11:03.000Z,1015.68
2022-11-27T06:12:01.773Z,1015.71
2022-11-27T06:13:01.787Z,1015.64
2022-11-27T06:14:02.148Z,1015.56
2022-11-27T06:15:01.920Z,1015.58
2022-11-27T06:16:01.734Z,1015.57
2022-11-27T06:17:02.606Z,1015.57
2022-11-27T06:18:02.407Z,1015.55
2022-11-27T06:19:02.077Z,1015.57
2022-11-27T06:20:02.110Z,1015.56
2022-11-27T06:21:02.597Z,1015.51
2022-11-27T06:22:02.746Z,1015.51
2022-11-27T06:23:02.452Z,1015.45
2022-11-27T06:24:02.512Z,1015.42
2022-11-27T06:25:02.538Z,1015.42
2022-11-27T06:26:03.046Z,1015.45
2022-11-27T06:27:02.272Z,1015.39
2022-11-27T06:28:02.214Z,1015.41
2022-11-27T06:29:02.019Z,1015.41
2022-11-27T06:30:02.106Z,1015.43
2022-11-27T06:31:02.123Z,1015.40
2022-11-27T06:32:02.376Z,1015.43
2022-11-27T06:33:02.461Z,1015.46
2022-11-27T06:34:02.686Z,1015.40
2022-11-27T06:35:02.397Z,1015.42
2022-11-27T06:36:02.446Z,1015.43
2022-11-27T06:37:01.981Z,1015.41
2022-11-27T06:38:01.892Z,1015.38
2022-11-27T06:39:01.938Z,1015.37
2022-11-27T06:40:01.748Z,1015.39
2022-11-27T06:41:02.065Z,1015.33
2022-11-27T06:42:02.174Z,1015.29
2022-11-27T06:43:02.551Z,1015.31
2022-11-27T06:44:02.136Z,1015.27
2022-11-27T06:45:02.228Z,1015.36
2022-11-27T06:46:02.305Z,1015.31
2022-11-27T06:47:01.715Z,1015.34
2022-11-27T06:48:02.016Z,1015.35
2022-11-27T06:49:01.941Z,1015.34
2022-11-27T06:50:01.903Z,1015.31
2022-11-27T06:51:01.770Z,1015.33
2022-11-27T06:52:01.987Z,1015.37
2022-11-27T06:53:02.450Z,1015.29
2022-11-27T06:54:01.919Z,1015.36
2022-11-27T06:55:01.946Z,1015.32
2022-11-27T06:56:01.945Z,1015.35
2022-11-27T06:57:02.032Z,1015.33
2022-11-27T06:58:01.658Z,1015.34
2022-11-27T06:59:01.473Z,1015.33
2022-11-27T07:00:01.908Z,1015.32
2022-11-27T07:01:02.001Z,1015.32
2022-11-27T07:02:02.677Z,1015.31
2022-11-27T07:03:02.991Z,1015.29
2022-11-27T07:04:02.652Z,1015.25
2022-11-27T07:05:02.678Z,1015.27
2022-11-27T07:06:02.683Z,1015.24
2022-11-27T07:07:02.230Z,1015.20
2022-11-27T07:08:02.107Z,1015.16
2022-11-27T07:09:02.016Z,1015.12
2022-11-27T07:10:02.602Z,1015.07
2022-11-27T07:11:02.044Z,1015.09
2022-11-27T07:12:02.645Z,1015.07
2022-11-27T07:13:02.274Z,1015.07
2022-11-27T07:14:02.844Z,1015.03
2022-11-27T07:15:04.382Z,1015.02
2022-11-27T07:16:03.033Z,1015.01
2022-11-27T07:17:01.950Z,1015.01
2022-11-27T07:18:01.680Z,1014.93
2022-11-27T07:19:01.899Z,1014.93
2022-11-27T07:20:02.183Z,1014.93
2022-11-27T07:21:02.006Z,1014.93
2022-11-27T07:22:02.265Z,1014.88
2022-11-27T07:23:02.500Z,1014.93
2022-11-27T07:24:02.255Z,1014.94
2022-11-27T07:25:01.934Z,1014.94
2022-11-27T07:26:02.474Z,1014.88
2022-11-27T07:27:02.612Z,1014.89
2022-11-27T07:28:02.645Z,1014.91
2022-11-27T07:29:02.814Z,1014.88
2022-11-27T07:30:02.523Z,1014.87
2022-11-27T07:31:02.336Z,1014.92
2022-11-27T07:32:03.190Z,1014.95
2022-11-27T07:33:02.836Z,1014.92
2022-11-27T07:34:03.482Z,1014.91
2022-11-27T07:35:02.912Z,1014.91
2022-11-27T07:36:02.933Z,1014.90
2022-11-27T07:37:02.390Z,1014.90
2022-11-27T07:38:02.580Z,1014.82
2022-11-27T07:39:02.125Z,1014.81
2022-11-27T07:40:03.469Z,1014.85
2022-11-27T07:41:02.379Z,1014.80
2022-11-27T07:42:16.728Z,1014.80
2022-11-27T07:43:01.973Z,1014.83
2022-11-27T07:44:02.446Z,1014.85
2022-11-27T07:45:02.425Z,1014.87
2022-11-27T07:46:02.280Z,1014.84
2022-11-27T07:47:02.023Z,1014.87
2022-11-27T07:48:01.932Z,1014.89
2022-11-27T07:49:01.897Z,1014.90
2022-11-27T07:50:01.736Z,1014.90
2022-11-27T07:51:01.939Z,1014.87
2022-11-27T07:52:02.651Z,1014.90
2022-11-27T07:53:02.325Z,1014.91
2022-11-27T07:54:02.252Z,1014.92
2022-11-27T07:55:02.498Z,1014.95
2022-11-27T07:56:02.338Z,1014.97
2022-11-27T07:57:01.884Z,1014.92
2022-11-27T07:58:02.215Z,1014.85
2022-11-27T07:59:01.848Z,1014.88
2022-11-27T08:00:02.158Z,1014.80
2022-11-27T08:01:01.766Z,1014.77
2022-11-27T08:02:03.349Z,1014.73
2022-11-27T08:03:02.988Z,1014.68
2022-11-27T08:04:03.061Z,1014.68
2022-11-27T08:05:06.885Z,1014.63
2022-11-27T08:06:03.292Z,1014.60
2022-11-27T08:07:02.975Z,1014.59
2022-11-27T08:08:03.125Z,1014.55
2022-11-27T08:09:02.618Z,1014.59
2022-11-27T08:10:02.643Z,1014.59
2022-11-27T08:11:02.727Z,1014.55
2022-11-27T08:12:02.950Z,1014.59
2022-11-27T08:13:02.626Z,1014.51
2022-11-27T08:14:02.646Z,1014.47
2022-11-27T08:15:02.704Z,1014.42
2022-11-27T08:16:02.846Z,1014.40
2022-11-27T08:17:02.541Z,1014.41
2022-11-27T08:18:02.359Z,1014.44
2022-11-27T08:19:02.413Z,1014.40
2022-11-27T08:20:02.437Z,1014.43
2022-11-27T08:21:02.001Z,1014.39
2022-11-27T08:22:02.757Z,1014.40
2022-11-27T08:23:03.197Z,1014.36
2022-11-27T08:24:02.588Z,1014.35
2022-11-27T08:25:02.761Z,1014.38
2022-11-27T08:26:02.517Z,1014.38
2022-11-27T08:27:02.820Z,1014.34
2022-11-27T08:28:03.136Z,1014.36
2022-11-27T08:29:02.761Z,1014.29
2022-11-27T08:30:03.018Z,1014.29
2022-11-27T08:31:03.068Z,1014.23
2022-11-27T08:32:02.295Z,1014.26
2022-11-27T08:33:02.271Z,1014.25
2022-11-27T08:34:02.223Z,1014.23
2022-11-27T08:35:02.653Z,1014.17
2022-11-27T08:36:02.624Z,1014.14
2022-11-27T08:37:02.918Z,1014.16
2022-11-27T08:38:02.562Z,1014.11
2022-11-27T08:39:02.632Z,1014.07
2022-11-27T08:40:02.441Z,1014.08
2022-11-27T08:41:03.022Z,1014.09
2022-11-27T08:42:02.011Z,1014.09
2022-11-27T08:43:02.094Z,1014.03
2022-11-27T08:44:04.500Z,1014.11
2022-11-27T08:45:02.418Z,1014.06
2022-11-27T08:46:02.209Z,1014.08
2022-11-27T08:47:02.427Z,1014.04
2022-11-27T08:48:02.959Z,1014.05
2022-11-27T08:49:02.670Z,1014.03
2022-11-27T08:50:02.391Z,1014.05
2022-11-27T08:51:02.950Z,1014.08
2022-11-27T08:52:02.114Z,1014.07
2022-11-27T08:53:02.178Z,1014.05
2022-11-27T08:54:02.374Z,1014.08
2022-11-27T08:55:02.466Z,1014.03
2022-11-27T08:56:02.163Z,1013.97
2022-11-27T08:57:02.075Z,1013.99
2022-11-27T08:58:02.413Z,1013.99
2022-11-27T08:59:02.305Z,1013.98
2022-11-27T09:00:02.018Z,1013.93
2022-11-27T09:01:02.526Z,1013.89
2022-11-27T09:02:02.272Z,1013.94
2022-11-27T09:03:02.564Z,1013.81
2022-11-27T09:04:02.319Z,1013.88
2022-11-27T09:05:02.385Z,1013.85
2022-11-27T09:06:02.242Z,1013.82
2022-11-27T09:07:02.237Z,1013.80
2022-11-27T09:08:01.981Z,1013.82
2022-11-27T09:09:02.299Z,1013.80
2022-11-27T09:10:02.238Z,1013.79
2022-11-27T09:11:02.063Z,1013.81
2022-11-27T09:12:01.903Z,1013.82
2022-11-27T09:13:02.405Z,1013.86
2022-11-27T09:14:02.432Z,1013.96
2022-11-27T09:15:02.426Z,1013.99
2022-11-27T09:16:02.415Z,1014.00
2022-11-27T09:17:02.351Z,1014.07
2022-11-27T09:18:02.399Z,1014.17
2022-11-27T09:19:02.817Z,1014.19
2022-11-27T09:20:02.404Z,1014.19
2022-11-27T09:21:02.564Z,1014.11
2022-11-27T09:22:01.916Z,1014.06
2022-11-27T09:23:02.238Z,1014.08
2022-11-27T09:24:02.328Z,1014.16
2022-11-27T09:25:02.252Z,1014.17
2022-11-27T09:26:02.154Z,1014.11
2022-11-27T09:27:02.502Z,1014.09
2022-11-27T09:28:02.781Z,1014.07
2022-11-27T09:29:02.704Z,1014.04
2022-11-27T09:30:02.713Z,1014.00
2022-11-27T09:31:02.711Z,1014.07
2022-11-27T09:32:02.090Z,1014.07
2022-11-27T09:33:02.015Z,1014.07
2022-11-27T09:34:02.391Z,1014.12
2022-11-27T09:35:02.040Z,1014.13
2022-11-27T09:36:01.961Z,1014.06
2022-11-27T09:37:02.421Z,1014.13
2022-11-27T09:38:02.671Z,1014.11
2022-11-27T09:39:02.580Z,1014.04
2022-11-27T09:40:08.503Z,1014.02
2022-11-27T09:41:03.435Z,1014.03
2022-11-27T09:42:01.910Z,1014.00
2022-11-27T09:43:01.756Z,1014.01
2022-11-27T09:44:02.264Z,1014.01
2022-11-27T09:45:01.769Z,1013.99
2022-11-27T09:46:02.155Z,1014.05
2022-11-27T09:47:02.337Z,1014.10
2022-11-27T09:48:02.100Z,1014.15
2022-11-27T09:49:02.374Z,1014.09
2022-11-27T09:50:02.102Z,1014.02
2022-11-27T09:51:02.679Z,1014.03
2022-11-27T09:52:02.575Z,1013.94
2022-11-27T09:53:02.542Z,1013.89
2022-11-27T09:54:02.329Z,1013.88
2022-11-27T09:55:02.821Z,1013.82
2022-11-27T09:56:02.522Z,1013.87
2022-11-27T09:57:02.764Z,1013.79
2022-11-27T09:58:02.355Z,1013.80
2022-11-27T09:59:02.495Z,1013.79
2022-11-27T10:00:02.945Z,1013.77
2022-11-27T10:01:02.479Z,1013.77
2022-11-27T10:02:02.240Z,1013.68
2022-11-27T10:03:02.652Z,1013.73
2022-11-27T10:04:02.034Z,1013.73
2022-11-27T10:05:17.862Z,1013.73
2022-11-27T10:06:02.494Z,1013.70
2022-11-27T10:07:02.845Z,1013.68
2022-11-27T10:08:06.611Z,1013.67
2022-11-27T10:09:02.885Z,1013.63
2022-11-27T10:10:02.784Z,1013.59
2022-11-27T10:11:02.974Z,1013.61
2022-11-27T10:12:02.954Z,1013.62
2022-11-27T10:13:03.114Z,1013.66
2022-11-27T10:14:02.794Z,1013.64
2022-11-27T10:15:03.043Z,1013.67
2022-11-27T10:16:02.857Z,1013.67
2022-11-27T10:17:03.026Z,1013.69
2022-11-27T10:18:03.065Z,1013.70
2022-11-27T10:19:03.085Z,1013.72
2022-11-27T10:20:02.686Z,1013.70
2022-11-27T10:21:02.925Z,1013.72
2022-11-27T10:22:02.969Z,1013.66
2022-11-27T10:23:03.149Z,1013.59
2022-11-27T10:24:02.879Z,1013.54
2022-11-27T10:25:02.917Z,1013.45
2022-11-27T10:26:02.878Z,1013.42
2022-11-27T10:27:02.125Z,1013.43
2022-11-27T10:28:02.008Z,1013.45
2022-11-27T10:29:02.053Z,1013.43
2022-11-27T10:30:02.139Z,1013.43
2022-11-27T10:31:01.772Z,1013.40
2022-11-27T10:32:02.749Z,1013.32
2022-11-27T10:33:02.571Z,1013.29
2022-11-27T10:34:02.416Z,1013.32
2022-11-27T10:35:02.395Z,1013.36
2022-11-27T10:36:02.372Z,1013.29
2022-11-27T10:37:02.085Z,1013.30
2022-11-27T10:38:06.568Z,1013.25
2022-11-27T10:39:01.977Z,1013.23
2022-11-27T10:40:02.240Z,1013.21
2022-11-27T10:41:02.196Z,1013.16
2022-11-27T10:42:02.403Z,1013.21
2022-11-27T10:43:02.234Z,1013.16
2022-11-27T10:44:02.397Z,1013.17
2022-11-27T10:45:02.459Z,1013.18
2022-11-27T10:46:02.221Z,1013.19
2022-11-27T10:47:02.606Z,1013.17
2022-11-27T10:48:02.141Z,1013.23
2022-11-27T10:49:02.152Z,1013.23
2022-11-27T10:50:02.766Z,1013.20
2022-11-27T10:51:02.763Z,1013.29
2022-11-27T10:52:02.663Z,1013.23
2022-11-27T10:53:02.382Z,1013.26
2022-11-27T10:54:02.715Z,1013.31
2022-11-27T10:55:02.186Z,1013.28
2022-11-27T10:56:02.702Z,1013.27
2022-11-27T10:57:02.747Z,1013.24
2022-11-27T10:58:02.775Z,1013.22
2022-11-27T10:59:02.803Z,1013.26
2022-11-27T11:00:02.809Z,1013.17
2022-11-27T11:01:02.541Z,1013.11
2022-11-27T11:02:03.043Z,1013.15
2022-11-27T11:03:02.866Z,1013.09
2022-11-27T11:04:10.175Z,1013.10
2022-11-27T11:05:31.110Z,1013.04
2022-11-27T11:06:32.474Z,1013.02
2022-11-27T11:07:03.032Z,1013.02
2022-11-27T11:08:02.879Z,1012.96
2022-11-27T11:09:02.818Z,1012.97
2022-11-27T11:10:02.651Z,1012.94
2022-11-27T11:11:03.095Z,1012.97
2022-11-27T11:12:02.205Z,1012.93
2022-11-27T11:13:02.411Z,1012.90
2022-11-27T11:14:02.132Z,1012.90
2022-11-27T11:15:02.398Z,1012.95
2022-11-27T11:16:02.610Z,1012.90
2022-11-27T11:17:03.372Z,1012.90
2022-11-27T11:18:02.966Z,1012.89
2022-11-27T11:19:02.937Z,1012.87
2022-11-27T11:20:02.953Z,1012.84
2022-11-27T11:21:03.289Z,1012.85
2022-11-27T11:22:02.425Z,1012.79
2022-11-27T11:23:02.042Z,1012.77
2022-11-27T11:24:02.031Z,1012.76
2022-11-27T11:25:01.962Z,1012.76
2022-11-27T11:26:01.982Z,1012.69
2022-11-27T11:27:02.661Z,1012.69
2022-11-27T11:28:02.591Z,1012.70
2022-11-27T11:29:02.738Z,1012.62
2022-11-27T11:30:02.493Z,1012.58
2022-11-27T11:31:02.504Z,1012.56
2022-11-27T11:32:03.312Z,1012.57
2022-11-27T11:33:03.355Z,1012.55
2022-11-27T11:34:03.043Z,1012.49
2022-11-27T11:35:03.028Z,1012.51
2022-11-27T11:36:02.758Z,1012.50
2022-11-27T11:37:02.502Z,1012.49
2022-11-27T11:38:02.471Z,1012.43
2022-11-27T11:39:02.508Z,1012.40
2022-11-27T11:40:02.484Z,1012.43
2022-11-27T11:41:02.109Z,1012.42
2022-11-27T11:42:02.710Z,1012.41
2022-11-27T11:43:02.478Z,1012.35
2022-11-27T11:44:02.487Z,1012.33
2022-11-27T11:45:02.449Z,1012.31
2022-11-27T11:46:02.364Z,1012.33
2022-11-27T11:47:02.742Z,1012.30
2022-11-27T11:48:02.756Z,1012.31
2022-11-27T11:49:02.450Z,1012.31
2022-11-27T11:50:02.162Z,1012.30
2022-11-27T11:51:02.279Z,1012.26
2022-11-27T11:52:02.926Z,1012.26
2022-11-27T11:53:02.929Z,1012.24
2022-11-27T11:54:02.687Z,1012.23
2022-11-27T11:55:02.648Z,1012.23
2022-11-27T11:56:02.717Z,1012.20
2022-11-27T11:57:03.216Z,1012.17
2022-11-27T11:58:03.206Z,1012.20
2022-11-27T11:59:02.930Z,1012.14
2022-11-27T12:00:02.764Z,1012.15
2022-11-27T12:01:26.058Z,1012.09
2022-11-27T12:02:01.759Z,1012.06
2022-11-27T12:03:01.963Z,1012.04
2022-11-27T12:04:02.179Z,1012.06
2022-11-27T12:05:02.259Z,1011.95